Arild, Sweden

7:42 PM CEST on July 23, 2017 (GMT +0200)
Allmogevägen | | Change Station

Elev 131 ft 56.26 °N, 12.61 °E | Updated 14 minutes ago

Rain
Rain
59.7 °F
Feels Like 59.7 °F
N
0.6
Wind Variable Wind from SE
Gusts 4.3 mph

Today
High -- | Low -- °F
--% Chance of Precip.
Yesterday
High -- | Low -- °F
Precip. -- in
Pressure 29.89 in
Visibility 6.2 miles
Clouds Mostly Cloudy 4400 ft
Overcast 8600 ft
Dew Point 54 °F
Humidity 81%
Rainfall 0.25 in
Snow Depth Not available.
4:55 AM 9:35 PM
New Moon, 0% visible
METAR ESTA 231720Z 11012KT 9999 RA BKN044 OVC086 15/14 Q1012
Pressure 29.89 in
Visibility 6.2 miles
Clouds Mostly Cloudy 4400 ft
Overcast 8600 ft
Dew Point 54 °F
Humidity 81%
Rainfall 0.25 in
Snow Depth Not available.
4:55 AM 9:35 PM
New Moon, 0% visible
METAR ESTA 231720Z 11012KT 9999 RA BKN044 OVC086 15/14 Q1012

Get Severe Weather Alerts

Thanks for signing up!

Be on the lookout for a verification email in your inbox.

You'll start receiving the daily forecast at 6 AM.

×

10-Day Weather Forecast

×

Almanac

Astronomy

Jul. 23, 2017 Rise Set
Actual Time
Civil Twilight
Nautical Twilight
Astronomical Twilight
Moon
Length of Visible Light
Length of Day
Tomorrow will be .
, % of the Moon is Illuminated

Today's Extremes

Country Highs Country Lows

Community

WunderPhotos

Category 6

Welcome to Category 6. This is the collective home for Weather Underground's featured writeups by Dr. Jeff Masters (right), Bob Henson (left), Chris Burt, and other regular contributors.

Nearby

Air Quality

  Air Quality AQ Index Pollutant
Not available.

Snow Depth

Station Depth Elevation

Earthquake Activity

City Distance Mag. Time & Date
Minimum magnitude displayed is 2.5.

Coastal Water Temperatures

Place Temperature

Stations

Nearby Weather Stations

Station Location Temp. Windchill Dew Point Humidity Wind Precip. Elev Updated Type